createdAt,value
2018-12-25T00:01:05.989Z,101774.72
2018-12-25T00:02:40.590Z,101775.73
2018-12-25T00:04:15.191Z,101775.47
2018-12-25T00:06:18.237Z,101773.39
2018-12-25T00:07:58.263Z,101779.66
2018-12-25T00:09:40.394Z,101779.92
2018-12-25T00:11:31.123Z,101773.13
2018-12-25T00:13:12.170Z,101777.13
2018-12-25T00:14:58.902Z,101770.67
2018-12-25T00:16:34.724Z,101782.03
2018-12-25T00:18:14.063Z,101782.08
2018-12-25T00:20:23.594Z,101780.70
2018-12-25T00:21:58.898Z,101789.06
2018-12-25T00:23:34.082Z,101790.34
2018-12-25T00:25:16.638Z,101793.43
2018-12-25T00:27:01.247Z,101791.75
2018-12-25T00:28:37.281Z,101794.61
2018-12-25T00:30:12.192Z,101796.15
2018-12-25T00:31:48.303Z,101800.31
2018-12-25T00:33:25.293Z,101798.34
2018-12-25T00:35:01.820Z,101803.74
2018-12-25T00:36:37.197Z,101799.96
2018-12-25T00:38:14.052Z,101792.13
2018-12-25T00:39:50.430Z,101797.36
2018-12-25T00:41:27.574Z,101791.02
2018-12-25T00:43:03.341Z,101799.70
2018-12-25T00:44:38.316Z,101802.16
2018-12-25T00:46:16.299Z,101808.07
2018-12-25T00:47:51.249Z,101799.32
2018-12-25T00:49:27.132Z,101790.80
2018-12-25T00:51:15.148Z,101799.35
2018-12-25T00:52:50.436Z,101808.66
2018-12-25T00:54:25.562Z,101805.72
2018-12-25T00:56:16.224Z,101806.23
2018-12-25T00:57:51.056Z,101812.34
2018-12-25T00:59:27.010Z,101809.19
2018-12-25T01:01:06.355Z,101797.56
2018-12-25T01:02:41.199Z,101799.22
2018-12-25T01:04:16.498Z,101791.12
2018-12-25T01:05:52.303Z,101793.25
2018-12-25T01:07:29.960Z,101795.09
2018-12-25T01:09:11.137Z,101786.19
2018-12-25T01:11:12.360Z,101784.75
2018-12-25T01:12:54.318Z,101791.15
2018-12-25T01:16:18.702Z,101785.39
2018-12-25T01:18:09.731Z,101795.36
2018-12-25T01:19:44.343Z,101791.12
2018-12-25T01:21:20.175Z,101786.96
2018-12-25T01:22:55.003Z,101791.66
2018-12-25T01:24:29.846Z,101790.74
2018-12-25T01:26:04.858Z,101791.47
2018-12-25T01:27:39.776Z,101789.14
2018-12-25T01:29:14.415Z,101792.30
2018-12-25T01:30:53.907Z,101799.44
2018-12-25T01:32:28.664Z,101793.84
2018-12-25T01:34:04.440Z,101790.75
2018-12-25T01:35:39.226Z,101797.03
2018-12-25T01:37:14.430Z,101795.70
2018-12-25T01:38:49.817Z,101792.45
2018-12-25T01:40:24.895Z,101796.18
2018-12-25T01:42:00.427Z,101792.34
2018-12-25T01:43:38.781Z,101792.11
2018-12-25T01:45:13.841Z,101792.03
2018-12-25T01:46:48.948Z,101792.02
2018-12-25T01:48:24.171Z,101797.14
2018-12-25T01:49:58.867Z,101802.55
2018-12-25T01:51:33.796Z,101796.21
2018-12-25T01:53:09.409Z,101796.85
2018-12-25T01:54:44.618Z,101799.67
2018-12-25T03:41:31.869Z,101749.41
2018-12-25T03:50:35.179Z,101732.66
2018-12-25T04:54:39.625Z,101762.84
2018-12-25T05:03:24.142Z,101765.48
2018-12-25T05:23:27.045Z,101759.78
2018-12-25T06:01:54.278Z,101789.57
2018-12-25T11:28:33.207Z,101705.47
2018-12-25T11:32:14.391Z,101699.09
2018-12-25T12:07:02.707Z,101693.05
2018-12-25T12:08:38.051Z,101688.15
2018-12-25T12:10:13.367Z,101691.30
2018-12-25T12:11:48.707Z,101684.37
2018-12-25T12:13:24.116Z,101686.12
2018-12-25T12:14:59.467Z,101691.19
2018-12-25T12:16:34.784Z,101694.07
2018-12-25T12:18:10.132Z,101697.34
2018-12-25T12:19:45.520Z,101689.20
2018-12-25T12:21:20.854Z,101694.71
2018-12-25T12:22:56.192Z,101692.26
2018-12-25T12:24:31.603Z,101689.45
2018-12-25T12:26:06.926Z,101687.22
2018-12-25T12:27:42.252Z,101684.11
2018-12-25T12:29:17.658Z,101683.41
2018-12-25T12:30:53.351Z,101689.20
2018-12-25T12:32:28.676Z,101695.59
2018-12-25T12:34:03.989Z,101691.27
2018-12-25T12:35:39.343Z,101691.34
2018-12-25T12:37:14.709Z,101698.80
2018-12-25T12:38:50.047Z,101692.84
2018-12-25T12:40:25.483Z,101692.50
2018-12-25T12:42:00.852Z,101694.95
2018-12-25T12:43:36.256Z,101693.88
2018-12-25T12:45:11.596Z,101697.84
2018-12-25T12:46:46.931Z,101697.25
2018-12-25T12:48:22.322Z,101705.87
2018-12-25T12:49:57.659Z,101703.67
2018-12-25T12:51:33.024Z,101705.00
2018-12-25T12:53:08.428Z,101704.84
2018-12-25T12:54:43.823Z,101703.87
2018-12-25T12:56:19.152Z,101697.53
2018-12-25T12:57:54.506Z,101712.73
2018-12-25T12:59:29.902Z,101705.05
2018-12-25T13:01:05.330Z,101701.64
2018-12-25T13:02:40.693Z,101701.41
2018-12-25T13:04:16.073Z,101694.71
2018-12-25T13:05:53.619Z,101693.12
2018-12-25T13:07:50.181Z,101696.12
2018-12-25T13:09:25.695Z,101696.34
2018-12-25T13:11:01.319Z,101696.28
2018-12-25T13:12:37.021Z,101703.72
2018-12-25T13:14:12.534Z,101703.09
2018-12-25T13:15:48.086Z,101708.67
2018-12-25T13:17:23.740Z,101704.61
2018-12-25T13:19:00.680Z,101719.96
2018-12-25T13:20:36.269Z,101724.72
2018-12-25T13:22:13.442Z,101720.83
2018-12-25T13:23:49.015Z,101717.50
2018-12-25T13:27:19.630Z,101720.05
2018-12-25T13:28:56.390Z,101729.63
2018-12-25T13:30:33.757Z,101720.98
2018-12-25T13:34:04.347Z,101725.21
2018-12-25T13:35:40.098Z,101719.94
2018-12-25T13:37:17.911Z,101718.19
2018-12-25T13:38:53.630Z,101720.27
2018-12-25T13:40:34.297Z,101720.91
2018-12-25T13:42:17.878Z,101726.69
2018-12-25T13:43:56.538Z,101728.61
2018-12-25T13:45:32.249Z,101730.31
2018-12-25T13:47:07.819Z,101729.13
2018-12-25T13:48:43.376Z,101730.79
2018-12-25T13:50:32.174Z,101739.17
2018-12-25T13:51:57.439Z,101733.84
2018-12-25T13:53:33.101Z,101735.59
2018-12-25T13:55:08.924Z,101734.95
2018-12-25T13:56:44.438Z,101739.14
2018-12-25T13:58:20.108Z,101740.50
2018-12-25T13:59:55.801Z,101750.45
2018-12-25T14:01:32.566Z,101747.94
2018-12-25T14:03:08.157Z,101751.47
2018-12-25T14:04:45.442Z,101748.47
2018-12-25T14:06:21.023Z,101751.72
2018-12-25T14:07:56.593Z,101739.05
2018-12-25T14:09:33.331Z,101753.56
2018-12-25T14:11:11.642Z,101750.61
2018-12-25T14:13:01.264Z,101758.33
2018-12-25T14:14:25.653Z,101753.99
2018-12-25T14:16:01.193Z,101759.90
2018-12-25T14:17:44.736Z,101761.77
2018-12-25T14:19:30.857Z,101756.14
2018-12-25T14:23:11.003Z,101760.95
2018-12-25T14:24:50.210Z,101759.50
2018-12-25T14:26:37.205Z,101763.99
2018-12-25T14:28:14.600Z,101759.51
2018-12-25T14:30:41.876Z,101765.13
2018-12-25T14:31:32.404Z,101768.70
2018-12-25T14:34:22.826Z,101758.01
2018-12-25T14:34:49.402Z,101770.41
2018-12-25T14:36:33.538Z,101764.55
2018-12-25T14:38:34.070Z,101764.38
2018-12-25T14:40:50.449Z,101761.12
2018-12-25T14:42:38.060Z,101763.25
2018-12-25T14:44:22.147Z,101767.42
2018-12-25T14:46:08.066Z,101760.91
2018-12-25T14:48:27.613Z,101760.39
2018-12-25T14:49:54.659Z,101760.50
2018-12-25T14:51:39.854Z,101763.38
2018-12-25T14:53:38.756Z,101762.27
2018-12-25T14:55:24.126Z,101766.38
2018-12-25T14:56:59.749Z,101761.21
2018-12-25T14:58:38.266Z,101765.00
2018-12-25T15:00:44.877Z,101762.17
2018-12-25T15:01:59.175Z,101763.95
2018-12-25T15:03:34.682Z,101758.53
2018-12-25T15:05:10.236Z,101764.31
2018-12-25T15:06:45.620Z,101771.95
2018-12-25T15:08:21.020Z,101768.08
2018-12-25T15:09:56.455Z,101771.81
2018-12-25T15:11:38.319Z,101775.61
2018-12-25T15:13:13.798Z,101776.37
2018-12-25T15:14:49.253Z,101775.23
2018-12-25T15:16:24.615Z,101775.41
2018-12-25T15:18:01.728Z,101773.63
2018-12-25T15:19:37.085Z,101780.59
2018-12-25T15:21:12.491Z,101775.50
2018-12-25T15:22:47.870Z,101773.47
2018-12-25T15:24:24.699Z,101770.66
2018-12-25T15:26:00.068Z,101773.50
2018-12-25T15:27:35.532Z,101771.61
2018-12-25T15:29:11.025Z,101770.34
2018-12-25T15:30:46.423Z,101765.05
2018-12-25T15:32:21.781Z,101766.44
2018-12-25T15:33:57.236Z,101764.88
2018-12-25T15:35:32.633Z,101760.55
2018-12-25T15:37:10.076Z,101762.20
2018-12-25T15:38:45.407Z,101763.75
2018-12-25T15:40:22.361Z,101761.45
2018-12-25T15:41:57.828Z,101767.81
2018-12-25T15:43:33.224Z,101753.28
2018-12-25T15:45:09.801Z,101760.75
2018-12-25T15:46:45.204Z,101765.73
2018-12-25T15:48:20.727Z,101758.51
2018-12-25T15:49:56.671Z,101766.21
2018-12-25T15:51:32.251Z,101775.23
2018-12-25T15:53:07.679Z,101770.86
2018-12-25T15:54:43.074Z,101772.41
2018-12-25T15:56:20.267Z,101764.81
2018-12-25T15:57:55.693Z,101779.19
2018-12-25T15:59:31.179Z,101769.30
2018-12-25T16:01:06.605Z,101775.98
2018-12-25T16:02:41.980Z,101772.30
2018-12-25T16:04:17.516Z,101777.21
2018-12-25T16:05:53.071Z,101766.47
2018-12-25T16:07:31.561Z,101756.58
2018-12-25T16:09:08.492Z,101766.31
2018-12-25T16:10:43.863Z,101762.83
2018-12-25T16:12:19.728Z,101763.47
2018-12-25T16:13:55.165Z,101769.94
2018-12-25T16:15:30.597Z,101768.61
2018-12-25T16:17:05.987Z,101777.64
2018-12-25T16:18:41.473Z,101779.28
2018-12-25T16:20:16.887Z,101779.55
2018-12-25T16:21:52.411Z,101777.15
2018-12-25T16:23:27.830Z,101777.23
2018-12-25T16:25:03.464Z,101768.63
2018-12-25T16:26:39.020Z,101775.56
2018-12-25T16:28:14.553Z,101772.48
2018-12-25T16:29:49.934Z,101773.44
2018-12-25T16:31:25.507Z,101773.14
2018-12-25T16:33:00.951Z,101770.41
2018-12-25T16:34:36.401Z,101775.02
2018-12-25T16:36:11.850Z,101762.22
2018-12-25T16:37:47.264Z,101764.16
2018-12-25T16:39:25.962Z,101763.30
2018-12-25T16:41:20.575Z,101765.59
2018-12-25T16:42:56.428Z,101773.23
2018-12-25T16:44:32.113Z,101764.57
2018-12-25T16:46:07.604Z,101772.06
2018-12-25T16:47:43.085Z,101776.23
2018-12-25T16:49:18.519Z,101770.52
2018-12-25T16:50:53.965Z,101768.27
2018-12-25T16:52:29.344Z,101769.86
2018-12-25T16:54:05.284Z,101780.34
2018-12-25T16:55:41.330Z,101779.32
2018-12-25T16:57:16.890Z,101778.09
2018-12-25T16:59:11.392Z,101785.67
2018-12-25T17:00:47.205Z,101782.42
2018-12-25T17:02:22.655Z,101786.81
2018-12-25T17:03:58.324Z,101779.16
2018-12-25T17:05:33.859Z,101784.70
2018-12-25T17:07:09.565Z,101778.98
2018-12-25T17:08:45.238Z,101791.42
2018-12-25T17:10:27.311Z,101782.72
2018-12-25T17:12:02.967Z,101788.22
2018-12-25T17:13:38.990Z,101790.36
2018-12-25T17:15:14.364Z,101791.63
2018-12-25T17:16:51.407Z,101788.74
2018-12-25T17:18:32.807Z,101791.64
2018-12-25T17:20:09.180Z,101785.66
2018-12-25T17:21:45.260Z,101788.33
2018-12-25T17:23:20.740Z,101787.21
2018-12-25T17:24:56.832Z,101781.70
2018-12-25T17:26:32.828Z,101772.06
2018-12-25T17:28:08.228Z,101783.13
2018-12-25T17:29:43.654Z,101782.34
2018-12-25T17:31:19.259Z,101779.08
2018-12-25T17:32:55.664Z,101770.52
2018-12-25T17:34:31.226Z,101777.58
2018-12-25T17:36:08.758Z,101775.44
2018-12-25T17:37:44.755Z,101771.16
2018-12-25T17:39:20.411Z,101774.37
2018-12-25T17:40:55.866Z,101776.52
2018-12-25T17:42:34.317Z,101774.87
2018-12-25T17:44:10.787Z,101769.98
2018-12-25T17:45:46.384Z,101771.81
2018-12-25T17:47:26.225Z,101776.41
2018-12-25T17:49:01.675Z,101771.75
2018-12-25T17:50:37.398Z,101777.36
2018-12-25T17:52:12.925Z,101782.23
2018-12-25T17:53:48.423Z,101779.19
2018-12-25T17:55:24.190Z,101788.97
2018-12-25T17:56:59.662Z,101787.50
2018-12-25T17:58:35.228Z,101784.46
2018-12-25T18:00:10.719Z,101785.02
2018-12-25T18:01:46.134Z,101783.63
2018-12-25T18:03:21.780Z,101787.00
2018-12-25T18:04:57.184Z,101785.87
2018-12-25T18:06:32.592Z,101785.61
2018-12-25T20:20:47.120Z,101818.77
2018-12-25T22:35:55.197Z,101750.31
2018-12-25T22:37:42.863Z,101741.92
2018-12-25T22:42:10.458Z,101734.64
2018-12-25T22:44:04.941Z,101729.13
2018-12-25T22:46:02.715Z,101729.11
2018-12-25T22:48:16.429Z,101719.84
2018-12-25T22:50:11.139Z,101727.52
2018-12-25T22:54:38.212Z,101721.81
2018-12-25T22:56:43.686Z,101724.59
2018-12-25T23:01:06.531Z,101713.09
2018-12-25T23:03:02.184Z,101709.14
2018-12-25T23:04:56.740Z,101708.77
2018-12-25T23:09:18.313Z,101706.93
2018-12-25T23:11:33.845Z,101711.14
2018-12-25T23:17:50.299Z,101704.84
2018-12-25T23:19:44.695Z,101704.16
2018-12-25T23:22:16.859Z,101704.80
2018-12-25T23:26:25.354Z,101704.35
2018-12-25T23:28:09.236Z,101704.50
2018-12-25T23:32:00.333Z,101697.84
2018-12-25T23:39:11.723Z,101704.78
2018-12-25T23:41:10.831Z,101707.08
2018-12-25T23:45:22.210Z,101716.60
2018-12-25T23:47:21.400Z,101718.20
2018-12-25T23:51:11.513Z,101712.20
2018-12-25T23:53:06.034Z,101720.70
2018-12-25T23:55:21.133Z,101713.63
2018-12-25T23:59:20.784Z,101710.83
